sensor_id;sensor_type;location;lat;lon;timestamp;P1;durP1;ratioP1;P2;durP2;ratioP2
50495;SDS011;38806;51.554;5.704;2023-08-21T00:01:38;6.25;;;3.45;;
50495;SDS011;38806;51.554;5.704;2023-08-21T00:03:38;6.32;;;4.00;;
50495;SDS011;38806;51.554;5.704;2023-08-21T00:05:38;10.30;;;4.03;;
50495;SDS011;38806;51.554;5.704;2023-08-21T00:07:39;7.95;;;4.57;;
50495;SDS011;38806;51.554;5.704;2023-08-21T00:09:39;7.03;;;3.10;;
50495;SDS011;38806;51.554;5.704;2023-08-21T00:11:39;11.95;;;4.60;;
50495;SDS011;38806;51.554;5.704;2023-08-21T00:13:40;8.70;;;4.32;;
50495;SDS011;38806;51.554;5.704;2023-08-21T00:15:46;8.68;;;4.88;;
50495;SDS011;38806;51.554;5.704;2023-08-21T00:17:49;9.45;;;4.05;;
50495;SDS011;38806;51.554;5.704;2023-08-21T00:19:49;10.23;;;5.60;;
50495;SDS011;38806;51.554;5.704;2023-08-21T00:21:53;8.55;;;4.50;;
50495;SDS011;38806;51.554;5.704;2023-08-21T00:23:53;11.70;;;4.65;;
50495;SDS011;38806;51.554;5.704;2023-08-21T00:25:53;9.40;;;4.97;;
50495;SDS011;38806;51.554;5.704;2023-08-21T00:27:53;9.20;;;4.30;;
50495;SDS011;38806;51.554;5.704;2023-08-21T00:29:54;7.57;;;3.50;;
50495;SDS011;38806;51.554;5.704;2023-08-21T00:31:54;7.40;;;3.60;;
50495;SDS011;38806;51.554;5.704;2023-08-21T00:33:54;16.38;;;4.10;;
50495;SDS011;38806;51.554;5.704;2023-08-21T00:35:55;11.50;;;3.90;;
50495;SDS011;38806;51.554;5.704;2023-08-21T00:37:55;9.63;;;4.18;;
50495;SDS011;38806;51.554;5.704;2023-08-21T00:39:55;7.65;;;3.50;;
50495;SDS011;38806;51.554;5.704;2023-08-21T00:41:56;10.13;;;3.72;;
50495;SDS011;38806;51.554;5.704;2023-08-21T00:43:56;7.15;;;3.53;;
50495;SDS011;38806;51.554;5.704;2023-08-21T00:45:56;11.60;;;5.03;;
50495;SDS011;38806;51.554;5.704;2023-08-21T00:47:57;8.73;;;4.18;;
50495;SDS011;38806;51.554;5.704;2023-08-21T00:49:57;7.70;;;4.53;;
50495;SDS011;38806;51.554;5.704;2023-08-21T00:52:01;10.32;;;3.88;;
50495;SDS011;38806;51.554;5.704;2023-08-21T00:54:01;9.73;;;4.38;;
50495;SDS011;38806;51.554;5.704;2023-08-21T00:56:07;7.45;;;4.55;;
50495;SDS011;38806;51.554;5.704;2023-08-21T00:58:09;8.70;;;4.28;;
50495;SDS011;38806;51.554;5.704;2023-08-21T01:00:19;6.45;;;3.75;;
50495;SDS011;38806;51.554;5.704;2023-08-21T01:02:26;7.55;;;3.58;;
50495;SDS011;38806;51.554;5.704;2023-08-21T01:04:26;7.13;;;4.00;;
50495;SDS011;38806;51.554;5.704;2023-08-21T01:06:32;8.30;;;4.32;;
50495;SDS011;38806;51.554;5.704;2023-08-21T01:10:56;8.38;;;4.47;;
50495;SDS011;38806;51.554;5.704;2023-08-21T01:12:59;8.35;;;4.32;;
50495;SDS011;38806;51.554;5.704;2023-08-21T01:15:08;9.95;;;5.60;;
50495;SDS011;38806;51.554;5.704;2023-08-21T01:17:10;9.35;;;5.70;;
50495;SDS011;38806;51.554;5.704;2023-08-21T01:19:19;10.18;;;5.25;;
50495;SDS011;38806;51.554;5.704;2023-08-21T01:21:31;8.57;;;5.28;;
50495;SDS011;38806;51.554;5.704;2023-08-21T01:25:32;9.60;;;5.05;;
50495;SDS011;38806;51.554;5.704;2023-08-21T01:27:35;9.73;;;6.38;;
50495;SDS011;38806;51.554;5.704;2023-08-21T01:29:36;7.57;;;4.38;;
50495;SDS011;38806;51.554;5.704;2023-08-21T01:31:37;8.10;;;4.53;;
50495;SDS011;38806;51.554;5.704;2023-08-21T01:33:40;8.07;;;5.78;;
50495;SDS011;38806;51.554;5.704;2023-08-21T01:35:47;8.65;;;4.18;;
50495;SDS011;38806;51.554;5.704;2023-08-21T01:37:54;10.18;;;4.07;;
50495;SDS011;38806;51.554;5.704;2023-08-21T01:40:00;7.82;;;4.65;;
50495;SDS011;38806;51.554;5.704;2023-08-21T01:42:00;8.00;;;4.72;;
50495;SDS011;38806;51.554;5.704;2023-08-21T01:44:01;10.02;;;5.20;;
50495;SDS011;38806;51.554;5.704;2023-08-21T01:46:01;10.02;;;4.95;;
50495;SDS011;38806;51.554;5.704;2023-08-21T01:48:02;8.07;;;3.97;;
50495;SDS011;38806;51.554;5.704;2023-08-21T01:50:03;5.97;;;3.97;;
50495;SDS011;38806;51.554;5.704;2023-08-21T01:52:03;7.22;;;3.72;;
50495;SDS011;38806;51.554;5.704;2023-08-21T01:54:07;6.95;;;3.95;;
50495;SDS011;38806;51.554;5.704;2023-08-21T01:56:07;7.70;;;3.72;;
50495;SDS011;38806;51.554;5.704;2023-08-21T01:58:07;8.57;;;3.50;;
50495;SDS011;38806;51.554;5.704;2023-08-21T02:00:08;7.20;;;3.75;;
50495;SDS011;38806;51.554;5.704;2023-08-21T02:02:08;7.40;;;4.28;;
50495;SDS011;38806;51.554;5.704;2023-08-21T02:04:09;6.80;;;3.80;;
50495;SDS011;38806;51.554;5.704;2023-08-21T02:06:09;9.23;;;3.60;;
50495;SDS011;38806;51.554;5.704;2023-08-21T02:08:13;7.93;;;4.18;;
50495;SDS011;38806;51.554;5.704;2023-08-21T02:10:14;11.18;;;4.18;;
50495;SDS011;38806;51.554;5.704;2023-08-21T02:12:14;10.75;;;3.95;;
50495;SDS011;38806;51.554;5.704;2023-08-21T02:14:14;5.88;;;4.10;;
50495;SDS011;38806;51.554;5.704;2023-08-21T02:16:15;7.80;;;4.22;;
50495;SDS011;38806;51.554;5.704;2023-08-21T02:18:15;10.02;;;5.10;;
50495;SDS011;38806;51.554;5.704;2023-08-21T02:20:19;10.55;;;4.57;;
50495;SDS011;38806;51.554;5.704;2023-08-21T02:22:22;11.80;;;4.28;;
50495;SDS011;38806;51.554;5.704;2023-08-21T02:24:23;8.40;;;4.20;;
50495;SDS011;38806;51.554;5.704;2023-08-21T02:26:26;7.78;;;3.70;;
50495;SDS011;38806;51.554;5.704;2023-08-21T02:28:33;6.78;;;4.78;;
50495;SDS011;38806;51.554;5.704;2023-08-21T02:30:40;7.57;;;4.10;;
50495;SDS011;38806;51.554;5.704;2023-08-21T02:32:40;11.10;;;4.55;;
50495;SDS011;38806;51.554;5.704;2023-08-21T02:34:40;7.97;;;4.72;;
50495;SDS011;38806;51.554;5.704;2023-08-21T02:36:40;10.25;;;3.85;;
50495;SDS011;38806;51.554;5.704;2023-08-21T02:38:47;9.82;;;4.18;;
50495;SDS011;38806;51.554;5.704;2023-08-21T02:40:53;6.50;;;3.55;;
50495;SDS011;38806;51.554;5.704;2023-08-21T02:42:53;7.30;;;4.15;;
50495;SDS011;38806;51.554;5.704;2023-08-21T02:44:54;5.38;;;3.10;;
50495;SDS011;38806;51.554;5.704;2023-08-21T02:46:54;9.05;;;3.72;;
50495;SDS011;38806;51.554;5.704;2023-08-21T02:48:54;6.75;;;3.20;;
50495;SDS011;38806;51.554;5.704;2023-08-21T02:50:55;4.78;;;3.20;;
50495;SDS011;38806;51.554;5.704;2023-08-21T02:52:55;7.68;;;3.38;;
50495;SDS011;38806;51.554;5.704;2023-08-21T02:54:56;4.25;;;2.95;;
50495;SDS011;38806;51.554;5.704;2023-08-21T02:56:56;6.97;;;3.53;;
50495;SDS011;38806;51.554;5.704;2023-08-21T02:58:57;7.85;;;4.43;;
50495;SDS011;38806;51.554;5.704;2023-08-21T03:00:57;7.82;;;3.40;;
50495;SDS011;38806;51.554;5.704;2023-08-21T03:02:58;10.15;;;3.92;;
50495;SDS011;38806;51.554;5.704;2023-08-21T03:04:58;7.20;;;3.83;;
50495;SDS011;38806;51.554;5.704;2023-08-21T03:06:58;6.85;;;3.50;;
50495;SDS011;38806;51.554;5.704;2023-08-21T03:08:59;5.93;;;3.53;;
50495;SDS011;38806;51.554;5.704;2023-08-21T03:10:59;5.38;;;3.25;;
50495;SDS011;38806;51.554;5.704;2023-08-21T03:12:59;7.30;;;4.32;;
50495;SDS011;38806;51.554;5.704;2023-08-21T03:15:05;9.48;;;3.72;;
50495;SDS011;38806;51.554;5.704;2023-08-21T03:17:06;7.88;;;3.30;;
50495;SDS011;38806;51.554;5.704;2023-08-21T03:19:07;10.90;;;4.00;;
50495;SDS011;38806;51.554;5.704;2023-08-21T03:21:07;4.78;;;3.05;;
50495;SDS011;38806;51.554;5.704;2023-08-21T03:23:07;10.27;;;4.70;;
50495;SDS011;38806;51.554;5.704;2023-08-21T03:25:08;8.13;;;3.55;;
50495;SDS011;38806;51.554;5.704;2023-08-21T03:27:08;10.50;;;4.38;;
50495;SDS011;38806;51.554;5.704;2023-08-21T03:29:08;10.95;;;4.80;;
50495;SDS011;38806;51.554;5.704;2023-08-21T03:31:09;7.53;;;3.85;;
50495;SDS011;38806;51.554;5.704;2023-08-21T03:33:09;10.82;;;4.75;;
50495;SDS011;38806;51.554;5.704;2023-08-21T03:35:10;7.65;;;3.22;;
50495;SDS011;38806;51.554;5.704;2023-08-21T03:37:10;9.20;;;5.00;;
50495;SDS011;38806;51.554;5.704;2023-08-21T03:39:10;5.63;;;3.45;;
50495;SDS011;38806;51.554;5.704;2023-08-21T03:41:17;7.90;;;3.45;;
50495;SDS011;38806;51.554;5.704;2023-08-21T03:43:23;8.70;;;3.97;;
50495;SDS011;38806;51.554;5.704;2023-08-21T03:45:29;6.95;;;4.13;;
50495;SDS011;38806;51.554;5.704;2023-08-21T03:47:30;9.80;;;4.28;;
50495;SDS011;38806;51.554;5.704;2023-08-21T03:49:30;10.10;;;5.00;;
50495;SDS011;38806;51.554;5.704;2023-08-21T03:51:30;13.07;;;5.80;;
50495;SDS011;38806;51.554;5.704;2023-08-21T03:53:31;11.23;;;5.78;;
50495;SDS011;38806;51.554;5.704;2023-08-21T03:55:31;11.50;;;5.05;;
50495;SDS011;38806;51.554;5.704;2023-08-21T03:57:31;15.63;;;4.63;;
50495;SDS011;38806;51.554;5.704;2023-08-21T03:59:32;9.88;;;5.03;;
50495;SDS011;38806;51.554;5.704;2023-08-21T04:01:32;9.15;;;4.43;;
50495;SDS011;38806;51.554;5.704;2023-08-21T04:03:35;11.50;;;5.43;;
50495;SDS011;38806;51.554;5.704;2023-08-21T04:05:42;12.52;;;6.50;;
50495;SDS011;38806;51.554;5.704;2023-08-21T04:07:42;16.60;;;7.97;;
50495;SDS011;38806;51.554;5.704;2023-08-21T04:09:42;12.15;;;6.40;;
50495;SDS011;38806;51.554;5.704;2023-08-21T04:11:43;15.55;;;7.10;;
50495;SDS011;38806;51.554;5.704;2023-08-21T04:13:43;13.45;;;7.45;;
50495;SDS011;38806;51.554;5.704;2023-08-21T04:15:50;12.82;;;7.75;;
50495;SDS011;38806;51.554;5.704;2023-08-21T04:17:54;18.95;;;8.10;;
50495;SDS011;38806;51.554;5.704;2023-08-21T04:19:54;15.40;;;7.65;;
50495;SDS011;38806;51.554;5.704;2023-08-21T04:21:55;17.33;;;9.77;;
50495;SDS011;38806;51.554;5.704;2023-08-21T04:24:02;20.05;;;9.07;;
50495;SDS011;38806;51.554;5.704;2023-08-21T04:26:02;15.13;;;8.57;;
50495;SDS011;38806;51.554;5.704;2023-08-21T04:28:03;10.68;;;8.02;;
50495;SDS011;38806;51.554;5.704;2023-08-21T04:30:04;17.05;;;8.05;;
50495;SDS011;38806;51.554;5.704;2023-08-21T04:32:05;18.55;;;9.15;;
50495;SDS011;38806;51.554;5.704;2023-08-21T04:34:06;21.10;;;10.80;;
50495;SDS011;38806;51.554;5.704;2023-08-21T04:36:06;21.20;;;11.70;;
50495;SDS011;38806;51.554;5.704;2023-08-21T04:38:07;20.83;;;11.50;;
50495;SDS011;38806;51.554;5.704;2023-08-21T04:40:07;18.35;;;11.52;;
50495;SDS011;38806;51.554;5.704;2023-08-21T04:42:08;17.65;;;10.65;;
50495;SDS011;38806;51.554;5.704;2023-08-21T04:44:08;19.38;;;11.85;;
50495;SDS011;38806;51.554;5.704;2023-08-21T04:46:08;19.30;;;11.38;;
50495;SDS011;38806;51.554;5.704;2023-08-21T04:48:12;18.25;;;10.75;;
50495;SDS011;38806;51.554;5.704;2023-08-21T04:50:12;18.42;;;11.80;;
50495;SDS011;38806;51.554;5.704;2023-08-21T04:52:12;19.25;;;11.57;;
50495;SDS011;38806;51.554;5.704;2023-08-21T04:54:19;18.10;;;10.90;;
50495;SDS011;38806;51.554;5.704;2023-08-21T04:56:22;17.10;;;11.50;;
50495;SDS011;38806;51.554;5.704;2023-08-21T04:58:23;16.27;;;11.30;;
50495;SDS011;38806;51.554;5.704;2023-08-21T05:00:26;16.15;;;10.55;;
50495;SDS011;38806;51.554;5.704;2023-08-21T05:02:35;24.23;;;10.75;;
50495;SDS011;38806;51.554;5.704;2023-08-21T05:04:36;19.98;;;10.77;;
50495;SDS011;38806;51.554;5.704;2023-08-21T05:06:37;20.15;;;9.88;;
50495;SDS011;38806;51.554;5.704;2023-08-21T05:08:37;17.98;;;8.68;;
50495;SDS011;38806;51.554;5.704;2023-08-21T05:10:37;14.52;;;8.45;;
50495;SDS011;38806;51.554;5.704;2023-08-21T05:12:37;18.05;;;9.30;;
50495;SDS011;38806;51.554;5.704;2023-08-21T05:14:41;17.75;;;9.98;;
50495;SDS011;38806;51.554;5.704;2023-08-21T05:16:41;14.45;;;8.63;;
50495;SDS011;38806;51.554;5.704;2023-08-21T05:18:42;15.52;;;8.43;;
50495;SDS011;38806;51.554;5.704;2023-08-21T05:20:42;18.15;;;9.00;;
50495;SDS011;38806;51.554;5.704;2023-08-21T05:22:48;14.98;;;8.65;;
50495;SDS011;38806;51.554;5.704;2023-08-21T05:24:52;15.15;;;8.93;;
50495;SDS011;38806;51.554;5.704;2023-08-21T05:26:52;11.88;;;8.07;;
50495;SDS011;38806;51.554;5.704;2023-08-21T05:28:53;15.30;;;8.80;;
50495;SDS011;38806;51.554;5.704;2023-08-21T05:30:53;17.95;;;9.88;;
50495;SDS011;38806;51.554;5.704;2023-08-21T05:32:53;24.30;;;10.43;;
50495;SDS011;38806;51.554;5.704;2023-08-21T05:34:54;13.57;;;9.98;;
50495;SDS011;38806;51.554;5.704;2023-08-21T05:36:54;15.27;;;8.32;;
50495;SDS011;38806;51.554;5.704;2023-08-21T05:38:56;16.70;;;8.43;;
50495;SDS011;38806;51.554;5.704;2023-08-21T05:40:56;11.95;;;9.10;;
50495;SDS011;38806;51.554;5.704;2023-08-21T05:42:57;15.75;;;8.77;;
50495;SDS011;38806;51.554;5.704;2023-08-21T05:44:58;17.73;;;8.52;;
50495;SDS011;38806;51.554;5.704;2023-08-21T05:46:58;12.05;;;8.80;;
50495;SDS011;38806;51.554;5.704;2023-08-21T05:48:58;12.50;;;8.85;;
50495;SDS011;38806;51.554;5.704;2023-08-21T05:50:59;20.05;;;8.77;;
50495;SDS011;38806;51.554;5.704;2023-08-21T05:53:05;14.98;;;10.40;;
50495;SDS011;38806;51.554;5.704;2023-08-21T05:55:06;15.85;;;9.82;;
50495;SDS011;38806;51.554;5.704;2023-08-21T05:57:06;19.63;;;10.80;;
50495;SDS011;38806;51.554;5.704;2023-08-21T05:59:09;19.77;;;9.50;;
50495;SDS011;38806;51.554;5.704;2023-08-21T06:01:10;14.80;;;11.13;;
50495;SDS011;38806;51.554;5.704;2023-08-21T06:03:10;14.73;;;8.38;;
50495;SDS011;38806;51.554;5.704;2023-08-21T06:05:11;16.77;;;9.27;;
50495;SDS011;38806;51.554;5.704;2023-08-21T06:07:11;15.00;;;9.30;;
50495;SDS011;38806;51.554;5.704;2023-08-21T06:09:12;19.40;;;10.68;;
50495;SDS011;38806;51.554;5.704;2023-08-21T06:11:12;14.00;;;8.65;;
50495;SDS011;38806;51.554;5.704;2023-08-21T06:13:18;15.07;;;10.48;;
50495;SDS011;38806;51.554;5.704;2023-08-21T06:15:19;19.55;;;9.52;;
50495;SDS011;38806;51.554;5.704;2023-08-21T06:17:26;16.40;;;9.65;;
50495;SDS011;38806;51.554;5.704;2023-08-21T06:19:30;14.50;;;9.52;;
50495;SDS011;38806;51.554;5.704;2023-08-21T06:21:30;13.95;;;10.20;;
50495;SDS011;38806;51.554;5.704;2023-08-21T06:23:31;16.00;;;9.20;;
50495;SDS011;38806;51.554;5.704;2023-08-21T06:25:32;20.73;;;10.02;;
50495;SDS011;38806;51.554;5.704;2023-08-21T06:27:32;15.60;;;10.05;;
50495;SDS011;38806;51.554;5.704;2023-08-21T06:29:33;17.00;;;10.48;;
50495;SDS011;38806;51.554;5.704;2023-08-21T06:31:39;13.57;;;9.23;;
50495;SDS011;38806;51.554;5.704;2023-08-21T06:33:39;16.45;;;10.48;;
50495;SDS011;38806;51.554;5.704;2023-08-21T06:35:45;13.05;;;9.45;;
50495;SDS011;38806;51.554;5.704;2023-08-21T06:37:52;16.50;;;9.98;;
50495;SDS011;38806;51.554;5.704;2023-08-21T06:39:52;13.20;;;9.85;;
50495;SDS011;38806;51.554;5.704;2023-08-21T06:41:52;10.55;;;7.97;;
50495;SDS011;38806;51.554;5.704;2023-08-21T06:43:53;15.30;;;10.48;;
50495;SDS011;38806;51.554;5.704;2023-08-21T06:45:53;16.73;;;9.18;;
50495;SDS011;38806;51.554;5.704;2023-08-21T06:47:54;17.83;;;9.10;;
50495;SDS011;38806;51.554;5.704;2023-08-21T06:49:54;14.50;;;8.55;;
50495;SDS011;38806;51.554;5.704;2023-08-21T06:51:54;16.92;;;8.98;;
50495;SDS011;38806;51.554;5.704;2023-08-21T06:53:55;10.63;;;6.60;;
50495;SDS011;38806;51.554;5.704;2023-08-21T06:55:55;12.55;;;7.30;;
50495;SDS011;38806;51.554;5.704;2023-08-21T06:57:56;11.20;;;7.28;;
50495;SDS011;38806;51.554;5.704;2023-08-21T06:59:57;15.10;;;7.78;;
50495;SDS011;38806;51.554;5.704;2023-08-21T07:02:03;17.20;;;7.32;;
50495;SDS011;38806;51.554;5.704;2023-08-21T07:04:06;11.13;;;6.22;;
50495;SDS011;38806;51.554;5.704;2023-08-21T07:06:07;12.57;;;6.10;;
50495;SDS011;38806;51.554;5.704;2023-08-21T07:08:07;11.43;;;6.45;;
50495;SDS011;38806;51.554;5.704;2023-08-21T07:10:07;9.18;;;5.82;;
50495;SDS011;38806;51.554;5.704;2023-08-21T07:12:14;10.75;;;6.80;;
50495;SDS011;38806;51.554;5.704;2023-08-21T07:14:14;15.90;;;6.13;;
50495;SDS011;38806;51.554;5.704;2023-08-21T07:16:21;13.10;;;7.18;;
50495;SDS011;38806;51.554;5.704;2023-08-21T07:18:24;11.68;;;5.78;;
50495;SDS011;38806;51.554;5.704;2023-08-21T07:20:28;9.35;;;5.53;;
50495;SDS011;38806;51.554;5.704;2023-08-21T07:22:31;13.13;;;6.30;;
50495;SDS011;38806;51.554;5.704;2023-08-21T07:24:34;15.45;;;7.68;;
50495;SDS011;38806;51.554;5.704;2023-08-21T07:26:35;12.88;;;6.00;;
50495;SDS011;38806;51.554;5.704;2023-08-21T07:28:35;8.77;;;5.88;;
50495;SDS011;38806;51.554;5.704;2023-08-21T07:30:36;10.52;;;5.45;;
50495;SDS011;38806;51.554;5.704;2023-08-21T07:32:36;13.75;;;6.30;;
50495;SDS011;38806;51.554;5.704;2023-08-21T07:34:37;9.73;;;6.18;;
50495;SDS011;38806;51.554;5.704;2023-08-21T07:36:37;9.23;;;5.75;;
50495;SDS011;38806;51.554;5.704;2023-08-21T07:38:37;6.82;;;4.03;;
50495;SDS011;38806;51.554;5.704;2023-08-21T07:40:38;10.43;;;6.47;;
50495;SDS011;38806;51.554;5.704;2023-08-21T07:42:38;9.57;;;5.07;;
50495;SDS011;38806;51.554;5.704;2023-08-21T07:44:39;9.55;;;4.78;;
50495;SDS011;38806;51.554;5.704;2023-08-21T07:46:42;6.95;;;3.80;;
50495;SDS011;38806;51.554;5.704;2023-08-21T07:48:43;8.35;;;3.45;;
50495;SDS011;38806;51.554;5.704;2023-08-21T07:50:49;9.75;;;3.67;;
50495;SDS011;38806;51.554;5.704;2023-08-21T07:52:52;9.60;;;3.38;;
50495;SDS011;38806;51.554;5.704;2023-08-21T07:54:53;11.27;;;3.85;;
50495;SDS011;38806;51.554;5.704;2023-08-21T07:56:53;7.38;;;3.25;;
50495;SDS011;38806;51.554;5.704;2023-08-21T07:58:54;8.57;;;3.15;;
50495;SDS011;38806;51.554;5.704;2023-08-21T08:00:54;17.80;;;3.75;;
50495;SDS011;38806;51.554;5.704;2023-08-21T08:02:55;6.20;;;2.90;;
50495;SDS011;38806;51.554;5.704;2023-08-21T08:04:55;6.53;;;3.20;;
50495;SDS011;38806;51.554;5.704;2023-08-21T08:07:02;9.05;;;3.13;;
50495;SDS011;38806;51.554;5.704;2023-08-21T08:09:02;6.97;;;2.70;;
50495;SDS011;38806;51.554;5.704;2023-08-21T08:11:05;7.43;;;2.50;;
50495;SDS011;38806;51.554;5.704;2023-08-21T08:13:06;7.25;;;2.72;;
50495;SDS011;38806;51.554;5.704;2023-08-21T08:15:15;7.55;;;2.88;;
50495;SDS011;38806;51.554;5.704;2023-08-21T08:17:15;6.72;;;2.40;;
50495;SDS011;38806;51.554;5.704;2023-08-21T08:19:16;4.75;;;2.15;;
50495;SDS011;38806;51.554;5.704;2023-08-21T08:21:22;7.55;;;2.30;;
50495;SDS011;38806;51.554;5.704;2023-08-21T08:23:29;6.70;;;2.05;;
50495;SDS011;38806;51.554;5.704;2023-08-21T08:25:35;10.07;;;1.77;;
50495;SDS011;38806;51.554;5.704;2023-08-21T08:27:35;5.95;;;2.22;;
50495;SDS011;38806;51.554;5.704;2023-08-21T08:29:36;4.50;;;1.58;;
50495;SDS011;38806;51.554;5.704;2023-08-21T08:31:36;8.77;;;2.17;;
50495;SDS011;38806;51.554;5.704;2023-08-21T08:33:44;7.07;;;3.00;;
50495;SDS011;38806;51.554;5.704;2023-08-21T08:35:45;9.95;;;3.47;;
50495;SDS011;38806;51.554;5.704;2023-08-21T08:37:45;8.63;;;3.35;;
50495;SDS011;38806;51.554;5.704;2023-08-21T08:39:51;6.97;;;3.28;;
50495;SDS011;38806;51.554;5.704;2023-08-21T08:41:56;9.13;;;3.60;;
50495;SDS011;38806;51.554;5.704;2023-08-21T08:43:57;9.80;;;4.60;;
50495;SDS011;38806;51.554;5.704;2023-08-21T08:45:58;8.15;;;3.42;;
50495;SDS011;38806;51.554;5.704;2023-08-21T08:47:59;9.82;;;3.50;;
50495;SDS011;38806;51.554;5.704;2023-08-21T08:50:04;10.40;;;4.57;;
50495;SDS011;38806;51.554;5.704;2023-08-21T08:54:08;8.25;;;3.35;;
50495;SDS011;38806;51.554;5.704;2023-08-21T08:56:09;8.35;;;3.38;;
50495;SDS011;38806;51.554;5.704;2023-08-21T08:58:09;6.82;;;2.53;;
50495;SDS011;38806;51.554;5.704;2023-08-21T09:00:10;5.05;;;2.38;;
50495;SDS011;38806;51.554;5.704;2023-08-21T09:02:10;5.90;;;2.35;;
50495;SDS011;38806;51.554;5.704;2023-08-21T09:04:11;11.10;;;2.80;;
50495;SDS011;38806;51.554;5.704;2023-08-21T09:06:11;7.22;;;2.10;;
50495;SDS011;38806;51.554;5.704;2023-08-21T09:08:12;8.02;;;2.83;;
50495;SDS011;38806;51.554;5.704;2023-08-21T09:10:13;8.27;;;3.28;;
50495;SDS011;38806;51.554;5.704;2023-08-21T09:12:17;5.88;;;2.95;;
50495;SDS011;38806;51.554;5.704;2023-08-21T09:14:28;7.38;;;2.45;;
50495;SDS011;38806;51.554;5.704;2023-08-21T09:16:37;5.68;;;1.67;;
50495;SDS011;38806;51.554;5.704;2023-08-21T09:18:37;7.28;;;2.28;;
50495;SDS011;38806;51.554;5.704;2023-08-21T09:20:42;4.97;;;1.77;;
50495;SDS011;38806;51.554;5.704;2023-08-21T09:22:44;8.65;;;2.70;;
50495;SDS011;38806;51.554;5.704;2023-08-21T09:25:02;4.57;;;1.55;;
50495;SDS011;38806;51.554;5.704;2023-08-21T09:27:13;4.13;;;1.92;;
50495;SDS011;38806;51.554;5.704;2023-08-21T09:29:37;9.63;;;1.55;;
50495;SDS011;38806;51.554;5.704;2023-08-21T09:31:46;6.78;;;2.30;;
50495;SDS011;38806;51.554;5.704;2023-08-21T09:34:03;7.35;;;1.40;;
50495;SDS011;38806;51.554;5.704;2023-08-21T09:36:06;4.68;;;1.60;;
50495;SDS011;38806;51.554;5.704;2023-08-21T09:38:09;7.30;;;2.00;;
50495;SDS011;38806;51.554;5.704;2023-08-21T09:40:10;6.63;;;2.55;;
50495;SDS011;38806;51.554;5.704;2023-08-21T09:42:14;6.43;;;1.92;;
50495;SDS011;38806;51.554;5.704;2023-08-21T09:44:14;6.60;;;1.92;;
50495;SDS011;38806;51.554;5.704;2023-08-21T09:46:24;3.95;;;1.42;;
50495;SDS011;38806;51.554;5.704;2023-08-21T09:48:33;7.05;;;2.42;;
50495;SDS011;38806;51.554;5.704;2023-08-21T09:50:34;7.78;;;1.98;;
50495;SDS011;38806;51.554;5.704;2023-08-21T09:52:36;8.18;;;2.70;;
50495;SDS011;38806;51.554;5.704;2023-08-21T09:54:39;6.10;;;2.10;;
50495;SDS011;38806;51.554;5.704;2023-08-21T09:56:43;6.22;;;1.67;;
50495;SDS011;38806;51.554;5.704;2023-08-21T09:58:52;5.35;;;1.85;;
50495;SDS011;38806;51.554;5.704;2023-08-21T10:00:52;4.35;;;1.60;;
50495;SDS011;38806;51.554;5.704;2023-08-21T10:02:57;6.47;;;2.58;;
50495;SDS011;38806;51.554;5.704;2023-08-21T10:04:59;4.72;;;1.95;;
50495;SDS011;38806;51.554;5.704;2023-08-21T10:07:00;5.18;;;1.58;;
50495;SDS011;38806;51.554;5.704;2023-08-21T10:09:06;8.10;;;2.30;;
50495;SDS011;38806;51.554;5.704;2023-08-21T10:11:08;7.40;;;2.35;;
50495;SDS011;38806;51.554;5.704;2023-08-21T10:13:09;8.05;;;2.38;;
50495;SDS011;38806;51.554;5.704;2023-08-21T10:15:10;7.22;;;2.83;;
50495;SDS011;38806;51.554;5.704;2023-08-21T10:17:10;8.38;;;2.97;;
50495;SDS011;38806;51.554;5.704;2023-08-21T10:19:14;5.10;;;2.97;;
50495;SDS011;38806;51.554;5.704;2023-08-21T10:21:29;24.98;;;2.60;;
50495;SDS011;38806;51.554;5.704;2023-08-21T10:23:35;12.00;;;3.30;;
50495;SDS011;38806;51.554;5.704;2023-08-21T10:25:41;6.32;;;2.90;;
50495;SDS011;38806;51.554;5.704;2023-08-21T10:27:42;8.63;;;2.30;;
50495;SDS011;38806;51.554;5.704;2023-08-21T10:32:07;10.40;;;3.35;;
50495;SDS011;38806;51.554;5.704;2023-08-21T10:34:11;6.53;;;3.05;;
50495;SDS011;38806;51.554;5.704;2023-08-21T10:36:13;11.30;;;3.70;;
50495;SDS011;38806;51.554;5.704;2023-08-21T10:38:13;9.35;;;3.30;;
50495;SDS011;38806;51.554;5.704;2023-08-21T10:40:21;7.45;;;2.70;;
50495;SDS011;38806;51.554;5.704;2023-08-21T10:42:40;5.07;;;2.10;;
50495;SDS011;38806;51.554;5.704;2023-08-21T10:46:51;7.15;;;2.63;;
50495;SDS011;38806;51.554;5.704;2023-08-21T10:48:52;6.95;;;2.55;;
50495;SDS011;38806;51.554;5.704;2023-08-21T10:50:52;11.97;;;3.23;;
50495;SDS011;38806;51.554;5.704;2023-08-21T10:52:53;6.03;;;2.65;;
50495;SDS011;38806;51.554;5.704;2023-08-21T10:55:02;6.15;;;1.65;;
50495;SDS011;38806;51.554;5.704;2023-08-21T10:57:05;4.47;;;1.63;;
50495;SDS011;38806;51.554;5.704;2023-08-21T10:59:07;5.07;;;2.05;;
50495;SDS011;38806;51.554;5.704;2023-08-21T11:01:08;5.15;;;1.35;;
50495;SDS011;38806;51.554;5.704;2023-08-21T11:03:08;5.88;;;1.92;;
50495;SDS011;38806;51.554;5.704;2023-08-21T11:05:15;5.28;;;1.55;;
50495;SDS011;38806;51.554;5.704;2023-08-21T11:07:15;5.53;;;1.08;;
50495;SDS011;38806;51.554;5.704;2023-08-21T11:09:16;3.90;;;1.02;;
50495;SDS011;38806;51.554;5.704;2023-08-21T11:11:22;2.70;;;1.02;;
50495;SDS011;38806;51.554;5.704;2023-08-21T11:13:24;7.20;;;2.45;;
50495;SDS011;38806;51.554;5.704;2023-08-21T11:15:24;5.80;;;2.30;;
50495;SDS011;38806;51.554;5.704;2023-08-21T11:17:25;7.88;;;2.05;;
50495;SDS011;38806;51.554;5.704;2023-08-21T11:19:25;6.38;;;1.88;;
50495;SDS011;38806;51.554;5.704;2023-08-21T11:21:26;7.05;;;2.53;;
50495;SDS011;38806;51.554;5.704;2023-08-21T11:23:31;6.30;;;2.30;;
50495;SDS011;38806;51.554;5.704;2023-08-21T11:25:32;5.65;;;2.38;;
50495;SDS011;38806;51.554;5.704;2023-08-21T11:27:33;8.57;;;1.98;;
50495;SDS011;38806;51.554;5.704;2023-08-21T11:29:37;5.93;;;1.90;;
50495;SDS011;38806;51.554;5.704;2023-08-21T11:31:37;3.97;;;1.70;;
50495;SDS011;38806;51.554;5.704;2023-08-21T11:33:41;8.90;;;2.75;;
50495;SDS011;38806;51.554;5.704;2023-08-21T11:35:41;8.40;;;2.55;;
50495;SDS011;38806;51.554;5.704;2023-08-21T11:37:45;7.88;;;2.70;;
50495;SDS011;38806;51.554;5.704;2023-08-21T11:39:49;8.25;;;2.30;;
50495;SDS011;38806;51.554;5.704;2023-08-21T11:41:56;9.75;;;2.67;;
50495;SDS011;38806;51.554;5.704;2023-08-21T11:44:02;4.80;;;2.20;;
50495;SDS011;38806;51.554;5.704;2023-08-21T11:46:04;4.32;;;1.45;;
50495;SDS011;38806;51.554;5.704;2023-08-21T11:48:06;3.40;;;1.50;;
50495;SDS011;38806;51.554;5.704;2023-08-21T11:50:07;6.57;;;2.28;;
50495;SDS011;38806;51.554;5.704;2023-08-21T11:52:18;6.57;;;1.70;;
50495;SDS011;38806;51.554;5.704;2023-08-21T11:54:19;5.40;;;2.25;;
50495;SDS011;38806;51.554;5.704;2023-08-21T11:56:20;7.35;;;1.60;;
50495;SDS011;38806;51.554;5.704;2023-08-21T11:58:20;2.90;;;1.42;;
50495;SDS011;38806;51.554;5.704;2023-08-21T12:00:26;4.63;;;1.77;;
50495;SDS011;38806;51.554;5.704;2023-08-21T12:02:30;6.25;;;1.83;;
50495;SDS011;38806;51.554;5.704;2023-08-21T12:04:30;5.90;;;2.10;;
50495;SDS011;38806;51.554;5.704;2023-08-21T12:06:31;5.13;;;1.90;;
50495;SDS011;38806;51.554;5.704;2023-08-21T12:08:32;7.22;;;2.22;;
50495;SDS011;38806;51.554;5.704;2023-08-21T12:10:36;4.38;;;1.50;;
50495;SDS011;38806;51.554;5.704;2023-08-21T12:12:36;4.15;;;1.25;;
50495;SDS011;38806;51.554;5.704;2023-08-21T12:14:36;5.33;;;1.40;;
50495;SDS011;38806;51.554;5.704;2023-08-21T12:16:39;4.45;;;1.13;;
50495;SDS011;38806;51.554;5.704;2023-08-21T12:18:39;4.75;;;1.58;;
50495;SDS011;38806;51.554;5.704;2023-08-21T12:20:40;4.72;;;1.50;;
50495;SDS011;38806;51.554;5.704;2023-08-21T12:22:40;4.23;;;1.47;;